West Point, Iowa
Current Conditions -  °F | °C
As of 8:55 PM on Monday 22 Dec 2014 (Local Time) from KFSW Reporting Station
Moderate Rain Moderate Rain  
Wind Chill: 43°   Ceiling: 300
Heat Index: 46°   Visibility: 3mi
Dew Point: 46°   Wind: 7mph
Humidity: 100%   Direction: 130°SE
Pressure: 29.48"   Gusts: NA
Location:  40.72°N, 91.45°W
Report Text: KFSW 230255Z AUTO 13006KT 3SM RA OVC003 08/08 A2948 RMK AO2 P0003
Loading
Personal Weather Stations






























Interactive Weather Map New forecast layout! Learn more

10-Day Weather Forecast

Advertisements
Track Severe Weather on mobile